Time;durP1;ratioP1;P1;durP2;ratioP2;P2;SDS_P1;SDS_P2;PMS_P1;PMS_P2;Temp;Humidity;BMP_temperature;BMP_pressure;BME280_temperature;BME280_humidity;BME280_pressure;Samples;Min_cycle;Max_cycle;Signal;HPM_P1;HPM_P2
2023/06/18 00:01:17;;;;;;;12.30;6.03;;;;;;;22.94;48.92;101163.50;5036252;28;20069;-66
2023/06/18 00:03:45;;;;;;;8.13;5.47;;;;;;;22.93;48.98;101169.41;5034541;28;20072;-67
2023/06/18 00:06:12;;;;;;;11.05;5.90;;;;;;;22.89;49.32;101163.72;5036674;28;20099;-66
2023/06/18 00:08:40;;;;;;;11.00;6.10;;;;;;;22.84;49.59;101166.72;5051832;28;20085;-65
2023/06/18 00:11:08;;;;;;;10.35;5.80;;;;;;;22.83;49.67;101162.31;5049079;28;20155;-65
2023/06/18 00:13:35;;;;;;;11.10;6.13;;;;;;;22.85;49.84;101164.75;5017949;28;20069;-67
2023/06/18 00:16:03;;;;;;;10.27;5.85;;;;;;;22.85;50.01;101173.06;5035248;28;20537;-67
2023/06/18 00:18:33;;;;;;;9.77;6.05;;;;;;;22.81;50.30;101170.19;5036108;28;20486;-67
2023/06/18 00:21:07;;;;;;;8.93;5.90;;;;;;;22.78;50.41;101165.31;5035973;28;20090;-65
2023/06/18 00:23:35;;;;;;;11.32;5.78;;;;;;;22.75;50.65;101172.38;5034453;28;20057;-66
2023/06/18 00:26:03;;;;;;;12.07;6.00;;;;;;;22.72;50.80;101167.47;5035174;28;20041;-65
2023/06/18 00:28:31;;;;;;;9.63;5.78;;;;;;;22.70;51.04;101166.19;5034786;28;20073;-66
2023/06/18 00:30:59;;;;;;;11.48;5.95;;;;;;;22.66;51.30;101165.28;5035711;28;20041;-66
2023/06/18 00:33:27;;;;;;;11.07;6.25;;;;;;;22.63;51.50;101160.38;5051286;28;20049;-65
2023/06/18 00:35:57;;;;;;;10.10;6.68;;;;;;;22.58;51.86;101161.41;5033896;28;20049;-64
2023/06/18 00:38:28;;;;;;;10.43;6.32;;;;;;;22.54;52.16;101164.06;5022696;28;20037;-65
2023/06/18 00:40:56;;;;;;;13.50;6.20;;;;;;;22.47;52.53;101155.47;5049691;28;20042;-62
2023/06/18 00:43:27;;;;;;;9.93;6.22;;;;;;;22.43;52.77;101157.31;5038552;28;20053;-57
2023/06/18 00:45:59;;;;;;;12.43;6.68;;;;;;;22.40;52.96;101154.41;5034151;28;20095;-65
2023/06/18 00:48:27;;;;;;;11.23;6.45;;;;;;;22.36;53.22;101148.72;5034866;28;20489;-66
2023/06/18 00:50:55;;;;;;;12.75;6.57;;;;;;;22.36;53.26;101150.69;5036355;28;20092;-64
2023/06/18 00:53:25;;;;;;;11.45;6.82;;;;;;;22.32;53.49;101142.22;5035389;28;20055;-58
2023/06/18 00:55:53;;;;;;;13.35;6.13;;;;;;;22.30;53.61;101147.31;5068725;28;20053;-58
2023/06/18 00:58:23;;;;;;;10.32;6.30;;;;;;;22.27;53.83;101140.47;5031235;28;20107;-66
2023/06/18 01:00:51;;;;;;;10.10;6.22;;;;;;;22.24;54.12;101143.09;5018111;28;20548;-66
2023/06/18 01:03:23;;;;;;;11.60;6.80;;;;;;;22.22;54.19;101140.66;5036633;28;20128;-66
2023/06/18 01:05:58;;;;;;;9.82;6.13;;;;;;;22.22;54.16;101146.22;5034520;28;20049;-66
2023/06/18 01:08:28;;;;;;;10.05;6.05;;;;;;;22.21;54.48;101141.03;5013293;28;20062;-67
2023/06/18 01:11:01;;;;;;;13.77;6.68;;;;;;;22.19;54.41;101146.06;5015626;28;20104;-66
2023/06/18 01:13:36;;;;;;;11.05;6.88;;;;;;;22.18;54.42;101138.91;5023747;28;20045;-66
2023/06/18 01:16:07;;;;;;;15.25;6.97;;;;;;;22.15;54.57;101137.59;5026045;28;20104;-65
2023/06/18 01:18:50;;;;;;;10.38;6.85;;;;;;;22.11;54.49;101139.44;5013660;28;20128;-66
2023/06/18 01:21:21;;;;;;;11.63;6.70;;;;;;;22.09;54.75;101137.00;5014594;28;20054;-66
2023/06/18 01:24:04;;;;;;;10.98;6.78;;;;;;;22.10;54.58;101138.63;5026094;28;20425;-66
2023/06/18 01:26:35;;;;;;;10.90;6.55;;;;;;;22.07;54.71;101144.84;5020760;28;20092;-66
2023/06/18 01:29:03;;;;;;;15.10;7.88;;;;;;;22.09;54.88;101136.19;4997671;28;20046;-67
2023/06/18 01:31:36;;;;;;;14.38;7.82;;;;;;;22.09;55.08;101131.44;5014222;28;20506;-67
2023/06/18 01:34:04;;;;;;;11.98;7.15;;;;;;;22.07;55.19;101136.50;5014800;28;20057;-66
2023/06/18 01:37:05;;;;;;;13.32;7.88;;;;;;;22.06;55.29;101140.44;5022221;28;20049;-67
2023/06/18 01:39:42;;;;;;;13.35;7.45;;;;;;;22.00;55.70;101133.47;5032922;28;20053;-67
2023/06/18 01:42:17;;;;;;;12.85;7.65;;;;;;;21.99;55.91;101133.81;5016143;28;20068;-66
2023/06/18 01:45:08;;;;;;;13.57;6.90;;;;;;;21.97;56.12;101133.34;5032738;28;20050;-68
2023/06/18 01:47:36;;;;;;;10.10;6.80;;;;;;;21.92;56.10;101131.56;5029827;28;20354;-66
2023/06/18 01:50:06;;;;;;;10.82;7.00;;;;;;;21.95;56.16;101130.91;5032048;28;20053;-66
2023/06/18 01:52:37;;;;;;;12.07;6.68;;;;;;;21.95;56.23;101127.31;5033370;28;20128;-66
2023/06/18 01:55:06;;;;;;;11.85;7.43;;;;;;;21.90;56.53;101126.34;5032654;28;20114;-67
2023/06/18 01:57:34;;;;;;;12.43;8.15;;;;;;;21.84;56.92;101121.34;5029050;28;20052;-66
2023/06/18 02:00:02;;;;;;;12.20;7.57;;;;;;;21.79;57.10;101116.00;5016550;28;20128;-66
2023/06/18 02:02:39;;;;;;;16.30;7.90;;;;;;;21.76;57.25;101113.91;5034588;28;20060;-66
2023/06/18 02:05:08;;;;;;;12.70;7.07;;;;;;;21.72;57.50;101110.16;5033645;28;20046;-66
2023/06/18 02:07:36;;;;;;;11.98;7.80;;;;;;;21.68;57.80;101108.06;5015625;28;20053;-66
2023/06/18 02:10:04;;;;;;;10.95;8.02;;;;;;;21.63;58.09;101111.06;5034252;28;20088;-66
2023/06/18 02:12:32;;;;;;;14.15;8.13;;;;;;;21.55;58.54;101114.69;5033923;28;20050;-67
2023/06/18 02:14:59;;;;;;;10.27;7.68;;;;;;;21.53;58.69;101107.84;5032948;28;20087;-66
2023/06/18 02:17:28;;;;;;;15.20;8.75;;;;;;;21.50;58.91;101114.88;5027424;28;20398;-66
2023/06/18 02:19:55;;;;;;;14.32;8.02;;;;;;;21.46;59.12;101103.66;5033862;28;20570;-67
2023/06/18 02:22:24;;;;;;;14.65;8.27;;;;;;;21.42;59.28;101097.13;5033007;28;20466;-67
2023/06/18 02:24:52;;;;;;;13.13;8.52;;;;;;;21.40;59.48;101107.75;5032355;28;20048;-67
2023/06/18 02:27:20;;;;;;;15.57;8.50;;;;;;;21.39;59.70;101099.75;5034839;28;20053;-67
2023/06/18 02:29:48;;;;;;;13.05;8.02;;;;;;;21.33;59.66;101096.34;5034308;28;20128;-66
2023/06/18 02:32:16;;;;;;;14.35;9.15;;;;;;;21.31;60.18;101095.06;5016664;28;20132;-66
2023/06/18 02:34:43;;;;;;;18.02;8.48;;;;;;;21.28;60.09;101104.84;5034050;28;20129;-66
2023/06/18 02:37:11;;;;;;;18.65;8.32;;;;;;;21.26;60.52;101098.81;5030826;28;20128;-65
2023/06/18 02:39:39;;;;;;;10.77;6.93;;;;;;;21.23;60.41;101105.03;5035185;28;20049;-66
2023/06/18 02:42:07;;;;;;;17.95;8.73;;;;;;;21.27;60.38;101106.00;5035897;28;20202;-67
2023/06/18 02:44:35;;;;;;;14.82;8.20;;;;;;;21.27;60.38;101100.47;5037713;28;20128;-67
2023/06/18 02:47:03;;;;;;;17.20;8.10;;;;;;;21.23;60.72;101099.50;5035882;28;20133;-67
2023/06/18 02:49:33;;;;;;;12.73;8.63;;;;;;;21.24;60.70;101098.38;5035589;28;20045;-66
2023/06/18 02:52:01;;;;;;;14.05;8.77;;;;;;;21.21;60.74;101097.09;5036544;28;20073;-66
2023/06/18 02:54:28;;;;;;;14.88;8.48;;;;;;;21.19;61.08;101096.59;5037704;28;20516;-65
2023/06/18 02:56:56;;;;;;;13.35;9.10;;;;;;;21.17;61.19;101103.63;5008522;28;20042;-66
2023/06/18 02:59:24;;;;;;;14.40;8.90;;;;;;;21.10;61.60;101084.75;5024231;28;20076;-66
2023/06/18 03:01:53;;;;;;;13.32;8.60;;;;;;;21.06;61.74;101094.84;5019424;28;20494;-66
2023/06/18 03:04:21;;;;;;;18.77;9.50;;;;;;;21.02;61.99;101093.88;5035845;28;20042;-66
2023/06/18 03:06:49;;;;;;;13.07;9.13;;;;;;;20.95;62.45;101093.59;5004336;28;20133;-66
2023/06/18 03:09:17;;;;;;;14.13;9.00;;;;;;;20.90;62.57;101085.47;5034181;28;20163;-66
2023/06/18 03:11:45;;;;;;;15.05;8.10;;;;;;;20.93;62.54;101085.63;5035645;28;20128;-67
2023/06/18 03:14:13;;;;;;;13.95;8.70;;;;;;;21.00;62.35;101090.66;5035650;28;20394;-67
2023/06/18 03:16:41;;;;;;;15.32;9.13;;;;;;;20.99;62.39;101095.34;5033926;28;20060;-65
2023/06/18 03:19:09;;;;;;;15.20;8.38;;;;;;;20.98;62.39;101098.47;5035702;28;20069;-66
2023/06/18 03:21:39;;;;;;;15.38;9.32;;;;;;;20.98;62.56;101093.75;5034399;28;20060;-66
2023/06/18 03:24:07;;;;;;;14.23;8.52;;;;;;;20.99;62.46;101097.31;5035364;28;20053;-66
2023/06/18 03:26:36;;;;;;;14.23;9.50;;;;;;;21.00;62.66;101096.19;5023713;28;20410;-65
2023/06/18 03:29:04;;;;;;;16.13;10.13;;;;;;;20.94;63.13;101103.06;5035931;28;20045;-65
2023/06/18 03:31:32;;;;;;;15.48;9.60;;;;;;;20.85;63.30;101103.91;5014498;28;20073;-65
2023/06/18 03:34:03;;;;;;;14.38;9.30;;;;;;;20.81;63.46;101093.81;5016378;28;20053;-66
2023/06/18 03:36:39;;;;;;;14.90;8.65;;;;;;;20.77;63.99;101098.38;5050216;28;20041;-66
2023/06/18 03:39:09;;;;;;;13.68;9.45;;;;;;;20.74;63.95;101099.06;5000664;28;20072;-66
2023/06/18 03:41:38;;;;;;;16.73;10.43;;;;;;;20.71;64.35;101092.22;5017678;28;20041;-67
2023/06/18 03:44:07;;;;;;;14.85;9.20;;;;;;;20.72;64.14;101101.34;4999727;28;20041;-67
2023/06/18 03:46:35;;;;;;;17.35;9.13;;;;;;;20.75;64.06;101095.13;5013452;28;20459;-66
2023/06/18 03:49:03;;;;;;;14.75;9.50;;;;;;;20.81;63.88;101102.13;5015189;28;20053;-66
2023/06/18 03:51:32;;;;;;;15.10;9.40;;;;;;;20.86;63.53;101099.16;5019450;28;20952;-66
2023/06/18 03:54:00;;;;;;;16.25;9.85;;;;;;;20.84;63.85;101105.03;5052149;28;20049;-67
2023/06/18 03:56:29;;;;;;;15.18;9.48;;;;;;;20.81;63.86;101105.69;5018770;28;20057;-65
2023/06/18 03:58:57;;;;;;;16.15;9.77;;;;;;;20.79;64.30;101101.63;5032391;28;20430;-66
2023/06/18 04:01:26;;;;;;;15.55;10.05;;;;;;;20.76;64.33;101107.84;5019950;28;20129;-66
2023/06/18 04:03:56;;;;;;;14.68;9.55;;;;;;;20.73;64.29;101108.47;5033112;28;20448;-67
2023/06/18 04:06:24;;;;;;;12.88;8.48;;;;;;;20.76;64.16;101114.19;5015766;28;20045;-66
2023/06/18 04:08:51;;;;;;;14.38;7.97;;;;;;;20.81;63.88;101111.25;5021191;28;20058;-67
2023/06/18 04:11:19;;;;;;;14.68;9.23;;;;;;;20.86;63.89;101107.47;5034792;28;20493;-68
2023/06/18 04:13:47;;;;;;;12.13;9.10;;;;;;;20.89;63.56;101108.78;5034363;28;20050;-67
2023/06/18 04:16:16;;;;;;;13.43;8.73;;;;;;;20.91;63.15;101120.34;5013027;28;20054;-67
2023/06/18 04:18:44;;;;;;;15.38;9.27;;;;;;;20.98;62.69;101120.66;5015340;28;20045;-66
2023/06/18 04:21:12;;;;;;;12.95;8.98;;;;;;;21.02;62.32;101121.59;5036112;28;20049;-66
2023/06/18 04:23:42;;;;;;;15.18;9.68;;;;;;;20.99;62.60;101128.59;5034346;28;20049;-65
2023/06/18 04:26:09;;;;;;;13.60;7.97;;;;;;;21.02;62.13;101125.19;5046686;28;20422;-65
2023/06/18 04:28:38;;;;;;;12.07;7.70;;;;;;;21.04;61.92;101127.63;5034207;28;20050;-66
2023/06/18 04:31:06;;;;;;;13.95;9.75;;;;;;;21.06;61.59;101122.56;5044128;28;20049;-66
2023/06/18 04:33:33;;;;;;;16.75;10.57;;;;;;;21.07;61.72;101124.19;5034235;28;20053;-66
2023/06/18 04:36:03;;;;;;;15.93;9.82;;;;;;;21.06;61.26;101122.56;5032577;28;20050;-67
2023/06/18 04:38:30;;;;;;;14.25;9.68;;;;;;;21.06;61.45;101128.09;5017793;28;20540;-66
2023/06/18 04:40:58;;;;;;;14.85;9.65;;;;;;;21.01;61.01;101125.50;5041314;28;20045;-67
2023/06/18 04:43:26;;;;;;;15.45;10.52;;;;;;;20.94;61.21;101114.94;5033849;28;20057;-66
2023/06/18 04:45:54;;;;;;;17.25;11.07;;;;;;;20.89;61.34;101122.63;5033604;28;20053;-66
2023/06/18 04:48:23;;;;;;;18.60;10.77;;;;;;;20.82;61.39;101123.13;5033768;28;20158;-67
2023/06/18 04:50:51;;;;;;;15.15;10.20;;;;;;;20.80;61.42;101109.59;5016254;28;20048;-67
2023/06/18 04:53:19;;;;;;;18.45;11.75;;;;;;;20.84;61.26;101116.09;5037316;28;20049;-67
2023/06/18 04:55:49;;;;;;;17.17;10.80;;;;;;;20.91;60.73;101121.16;5031926;28;20049;-67
2023/06/18 04:58:17;;;;;;;17.92;11.45;;;;;;;20.96;60.05;101117.38;5026492;28;20053;-65
2023/06/18 05:00:46;;;;;;;18.63;10.73;;;;;;;20.92;59.83;101116.41;5042021;28;20050;-65
2023/06/18 05:03:14;;;;;;;16.85;12.18;;;;;;;20.92;59.41;101120.00;5035738;28;20057;-60
2023/06/18 05:05:42;;;;;;;16.50;11.52;;;;;;;20.97;58.25;101119.00;5039519;28;20050;-61
2023/06/18 05:08:10;;;;;;;19.88;13.73;;;;;;;20.98;57.64;101115.09;5043641;28;20057;-65
2023/06/18 05:10:37;;;;;;;19.00;13.32;;;;;;;20.96;57.64;101117.38;5037195;28;20084;-66
2023/06/18 05:13:05;;;;;;;17.23;11.63;;;;;;;20.92;57.81;101116.41;5040025;28;20076;-65
2023/06/18 05:15:33;;;;;;;16.38;12.50;;;;;;;20.92;57.90;101110.88;5039675;28;20057;-61
2023/06/18 05:18:01;;;;;;;19.88;13.50;;;;;;;20.92;57.45;101110.88;5047588;28;20046;-63
2023/06/18 05:20:29;;;;;;;20.15;13.70;;;;;;;20.94;57.32;101119.66;5040236;28;20092;-66
2023/06/18 05:22:57;;;;;;;19.13;13.20;;;;;;;20.95;57.23;101122.13;5015855;28;20104;-66
2023/06/18 05:25:28;;;;;;;17.48;12.57;;;;;;;20.98;56.52;101126.19;5036611;28;20037;-66
2023/06/18 05:27:56;;;;;;;16.83;12.82;;;;;;;20.99;56.43;101116.72;5033990;28;20474;-66
2023/06/18 05:30:23;;;;;;;19.30;12.02;;;;;;;21.00;56.25;101118.34;5017472;28;20084;-67
2023/06/18 05:32:52;;;;;;;21.08;12.60;;;;;;;21.04;56.13;101119.31;5033805;28;20045;-66
2023/06/18 05:35:19;;;;;;;19.80;14.75;;;;;;;21.10;56.44;101123.53;5030959;28;20104;-65
2023/06/18 05:37:53;;;;;;;16.02;10.85;;;;;;;21.14;56.32;101129.19;5018033;28;20052;-66
2023/06/18 05:40:21;;;;;;;20.65;14.80;;;;;;;21.17;56.16;101129.38;5033815;28;20099;-66
2023/06/18 05:42:50;;;;;;;21.27;14.95;;;;;;;21.24;56.04;101128.84;5015802;28;20052;-65
2023/06/18 05:45:18;;;;;;;22.90;14.93;;;;;;;21.28;55.94;101135.34;5032450;28;20468;-66
2023/06/18 05:47:46;;;;;;;21.40;15.98;;;;;;;21.26;56.58;101144.00;5032438;28;20053;-66
2023/06/18 05:50:22;;;;;;;19.00;14.30;;;;;;;21.23;55.36;101139.09;5049587;28;20077;-66
2023/06/18 05:52:51;;;;;;;20.92;13.90;;;;;;;21.26;55.85;101148.72;5017050;28;20049;-66
2023/06/18 05:55:18;;;;;;;18.77;12.63;;;;;;;21.30;55.38;101144.13;5031588;28;20547;-67
2023/06/18 05:57:47;;;;;;;20.13;15.60;;;;;;;21.37;54.78;101143.63;5031566;28;20055;-66
2023/06/18 06:00:16;;;;;;;19.17;13.00;;;;;;;21.43;54.06;101147.84;5032846;28;20465;-66
2023/06/18 06:02:45;;;;;;;20.65;13.38;;;;;;;21.50;53.85;101148.13;5032126;28;20190;-67
2023/06/18 06:05:20;;;;;;;20.05;13.57;;;;;;;21.57;52.66;101140.09;4677466;28;9999971;-66
2023/06/18 06:07:49;;;;;;;15.73;11.80;;;;;;;21.62;51.67;101142.72;5019039;28;20160;-66
2023/06/18 06:10:22;;;;;;;18.95;13.73;;;;;;;21.63;51.36;101141.56;5011748;28;20040;-65
2023/06/18 06:12:53;;;;;;;17.92;13.15;;;;;;;21.63;51.46;101138.78;5011522;28;20478;-68
2023/06/18 06:15:22;;;;;;;17.48;11.77;;;;;;;21.65;51.59;101141.22;5027560;28;20076;-67
2023/06/18 06:17:50;;;;;;;15.80;10.40;;;;;;;21.69;51.68;101145.78;5026276;28;20502;-66
2023/06/18 06:20:18;;;;;;;13.40;10.00;;;;;;;21.76;51.33;101147.19;5028190;28;20056;-66
2023/06/18 06:22:48;;;;;;;21.80;14.15;;;;;;;21.81;50.52;101147.00;5024855;28;20096;-66
2023/06/18 06:25:16;;;;;;;18.92;13.60;;;;;;;21.83;49.59;101142.72;5041489;28;20104;-66
2023/06/18 06:27:44;;;;;;;16.90;12.60;;;;;;;21.86;49.21;101141.25;4992539;28;20139;-66
2023/06/18 06:30:12;;;;;;;32.63;13.00;;;;;;;21.90;49.68;101151.31;5007345;28;20042;-66
2023/06/18 06:32:40;;;;;;;20.13;12.45;;;;;;;21.94;49.43;101145.94;5024760;28;20051;-66
2023/06/18 06:35:08;;;;;;;22.30;13.90;;;;;;;21.97;49.14;101148.03;5028105;28;20614;-66
2023/06/18 06:37:36;;;;;;;23.40;13.60;;;;;;;21.98;48.63;101149.63;5028809;28;20107;-66
2023/06/18 06:40:07;;;;;;;22.95;13.55;;;;;;;21.98;48.59;101151.59;5013084;28;20065;-65
2023/06/18 06:42:36;;;;;;;18.45;13.55;;;;;;;21.97;48.50;101153.56;5027744;28;20049;-65
2023/06/18 06:45:23;;;;;;;19.48;13.27;;;;;;;21.99;48.62;101159.59;5029237;28;20054;-66
2023/06/18 06:48:29;;;;;;;20.23;10.88;;;;;;;22.02;48.85;101156.16;5026203;28;20054;-66
2023/06/18 06:50:57;;;;;;;21.23;11.57;;;;;;;22.04;48.89;101151.06;5030485;28;20132;-66
2023/06/18 06:53:27;;;;;;;20.70;14.02;;;;;;;22.05;48.88;101155.47;5020168;28;20058;-65
2023/06/18 06:55:55;;;;;;;19.45;11.07;;;;;;;22.06;49.09;101148.78;5011157;28;20108;-65
2023/06/18 06:58:23;;;;;;;18.52;13.18;;;;;;;22.07;49.06;101144.84;5010606;28;20060;-65
2023/06/18 07:00:51;;;;;;;17.58;12.35;;;;;;;22.09;48.79;101155.59;5031407;28;20128;-66
2023/06/18 07:03:19;;;;;;;19.67;12.00;;;;;;;22.09;48.64;101153.63;5016986;28;20486;-65
2023/06/18 07:05:47;;;;;;;23.35;14.13;;;;;;;22.10;48.60;101157.22;5018515;28;20057;-65
2023/06/18 07:08:14;;;;;;;22.00;14.18;;;;;;;22.09;48.60;101164.75;5012047;28;20089;-65
2023/06/18 07:10:42;;;;;;;20.58;11.85;;;;;;;22.10;48.90;101188.59;5030306;28;20119;-65
2023/06/18 07:13:13;;;;;;;26.88;16.30;;;;;;;22.09;49.68;101214.69;5022368;28;20567;-66
2023/06/18 07:15:41;;;;;;;22.83;15.40;;;;;;;22.11;50.10;101206.03;5027678;28;20128;-66
2023/06/18 07:18:09;;;;;;;21.90;13.10;;;;;;;22.09;49.67;101206.38;5028967;28;20073;-66
2023/06/18 07:20:37;;;;;;;25.67;12.27;;;;;;;22.10;50.12;101194.13;5044868;28;20513;-66
2023/06/18 07:23:05;;;;;;;18.15;13.43;;;;;;;22.07;49.61;101192.00;5028065;28;20072;-66
2023/06/18 07:25:32;;;;;;;19.13;11.82;;;;;;;22.07;49.56;101192.00;5015225;28;20124;-67
2023/06/18 07:28:00;;;;;;;18.30;11.40;;;;;;;22.08;49.53;101188.09;5032080;28;20128;-65
2023/06/18 07:30:28;;;;;;;22.77;10.75;;;;;;;22.11;50.20;101195.75;5031652;28;20080;-65
2023/06/18 07:32:55;;;;;;;20.17;11.73;;;;;;;22.18;49.97;101199.97;5065203;28;20135;-66
2023/06/18 07:35:23;;;;;;;20.85;11.02;;;;;;;22.19;49.80;101191.28;5032134;28;20099;-66
2023/06/18 07:37:51;;;;;;;17.98;11.88;;;;;;;22.19;49.36;101187.69;5031329;28;20050;-66
2023/06/18 07:40:19;;;;;;;15.30;9.68;;;;;;;22.20;49.53;101187.41;5033327;28;20054;-66
2023/06/18 07:42:47;;;;;;;16.65;9.18;;;;;;;22.29;50.27;101185.34;5026388;28;20422;-67
2023/06/18 07:45:15;;;;;;;16.02;10.40;;;;;;;22.30;48.51;101177.84;5031526;28;20087;-64
2023/06/18 07:47:42;;;;;;;15.15;10.10;;;;;;;22.31;48.14;101185.00;5030905;28;20122;-66
2023/06/18 07:50:10;;;;;;;16.75;8.25;;;;;;;22.35;49.10;101187.94;5031466;28;20041;-65
2023/06/18 07:52:38;;;;;;;16.85;9.63;;;;;;;22.37;48.53;101189.22;5031388;28;20063;-67
2023/06/18 07:55:07;;;;;;;14.00;9.82;;;;;;;22.39;48.41;101186.91;5026408;28;20377;-66
2023/06/18 07:57:35;;;;;;;17.50;11.32;;;;;;;22.42;48.39;101194.56;5013922;28;20156;-66
2023/06/18 08:00:03;;;;;;;15.48;10.23;;;;;;;22.48;48.01;101192.38;5014510;28;20045;-66
2023/06/18 08:02:38;;;;;;;16.70;10.67;;;;;;;22.49;48.13;101183.72;5030998;28;20061;-65
2023/06/18 08:05:07;;;;;;;12.93;7.53;;;;;;;22.54;47.83;101180.75;5030773;28;20492;-64
2023/06/18 08:07:35;;;;;;;14.02;7.53;;;;;;;22.62;48.51;101176.25;5027514;28;20057;-65
2023/06/18 08:10:03;;;;;;;17.63;8.45;;;;;;;22.66;47.71;101179.19;5042221;28;20153;-66
2023/06/18 08:12:30;;;;;;;14.02;7.95;;;;;;;22.68;48.77;101166.56;5017041;28;20060;-66
2023/06/18 08:14:58;;;;;;;14.23;8.73;;;;;;;22.72;47.33;101175.00;5031988;28;20128;-66
2023/06/18 08:17:26;;;;;;;15.27;8.90;;;;;;;22.75;47.64;101168.75;5010672;28;20042;-66
2023/06/18 08:19:53;;;;;;;13.95;8.93;;;;;;;22.76;46.85;101167.63;5013804;28;20394;-66
2023/06/18 08:22:21;;;;;;;11.85;7.43;;;;;;;22.79;46.57;101163.34;5015155;28;20172;-66
2023/06/18 08:24:49;;;;;;;15.20;8.23;;;;;;;22.81;46.45;101163.81;5012477;28;20509;-65
2023/06/18 08:27:17;;;;;;;14.35;6.88;;;;;;;22.83;46.74;101162.31;5011641;28;20052;-65
2023/06/18 08:29:44;;;;;;;14.32;7.38;;;;;;;22.88;46.88;101164.88;5031373;28;20041;-66
2023/06/18 08:32:13;;;;;;;10.40;5.78;;;;;;;22.91;47.47;101155.84;5030218;28;20038;-67
2023/06/18 08:34:42;;;;;;;11.95;7.07;;;;;;;22.95;47.57;101156.78;5030418;28;20049;-66
2023/06/18 08:37:10;;;;;;;15.35;7.50;;;;;;;22.99;47.28;101159.72;5030732;28;20054;-66
2023/06/18 08:39:38;;;;;;;12.07;7.25;;;;;;;23.01;47.63;101153.81;5023273;28;20049;-66
2023/06/18 08:42:08;;;;;;;14.93;6.75;;;;;;;23.02;47.69;101159.03;5019359;28;20128;-66
2023/06/18 08:44:36;;;;;;;9.52;5.57;;;;;;;23.05;47.93;101154.75;5029548;28;20145;-67
2023/06/18 08:47:04;;;;;;;16.80;6.90;;;;;;;23.08;48.11;101151.28;5014379;28;20053;-65
2023/06/18 08:49:33;;;;;;;11.85;6.80;;;;;;;23.09;48.15;101150.94;5033865;28;20124;-65
2023/06/18 08:52:02;;;;;;;12.00;6.53;;;;;;;23.10;48.72;101151.75;5035300;28;20045;-66
2023/06/18 08:54:34;;;;;;;15.43;6.90;;;;;;;23.10;49.08;101151.75;5035322;28;20095;-67
2023/06/18 08:57:09;;;;;;;10.60;6.50;;;;;;;23.11;49.25;101153.38;5013846;28;20070;-66
2023/06/18 08:59:38;;;;;;;9.63;6.10;;;;;;;23.13;49.15;101154.63;5015501;28;20049;-66
2023/06/18 09:02:06;;;;;;;11.52;5.80;;;;;;;23.14;49.27;101153.50;5026691;28;20042;-66
2023/06/18 09:04:37;;;;;;;13.40;7.10;;;;;;;23.16;49.79;101155.91;5022038;28;20041;-66
2023/06/18 09:07:06;;;;;;;13.02;6.93;;;;;;;23.16;50.32;101153.97;5004145;28;20048;-66
2023/06/18 09:09:36;;;;;;;9.35;5.82;;;;;;;23.17;50.06;101157.56;4997866;28;20092;-65
2023/06/18 09:12:05;;;;;;;11.48;6.40;;;;;;;23.17;50.57;101158.34;5013832;28;20052;-67
2023/06/18 09:14:32;;;;;;;9.02;5.65;;;;;;;23.20;50.58;101156.84;5021097;28;20461;-66
2023/06/18 09:17:00;;;;;;;10.45;6.05;;;;;;;23.21;50.10;101158.50;5033746;28;20455;-66
2023/06/18 09:19:28;;;;;;;9.80;6.15;;;;;;;23.21;50.31;101144.59;5037954;28;20056;-66
2023/06/18 09:21:56;;;;;;;11.60;6.40;;;;;;;23.21;50.43;101155.72;5045429;28;20041;-65
2023/06/18 09:24:24;;;;;;;10.63;5.43;;;;;;;23.21;50.41;101154.88;5052547;28;20069;-64
2023/06/18 09:27:03;;;;;;;15.73;6.97;;;;;;;23.19;50.65;101158.03;5051448;28;20128;-64
2023/06/18 09:29:33;;;;;;;9.43;5.78;;;;;;;23.21;50.72;101157.66;5024354;28;20124;-66
2023/06/18 09:32:13;;;;;;;10.55;6.07;;;;;;;23.18;51.00;101157.19;5037439;28;20045;-62
2023/06/18 09:34:42;;;;;;;14.10;6.63;;;;;;;23.22;50.94;101156.53;5051878;28;20052;-63
2023/06/18 09:37:14;;;;;;;12.77;6.30;;;;;;;23.23;51.28;101155.34;5050872;28;20065;-59
2023/06/18 09:39:42;;;;;;;12.88;6.40;;;;;;;23.22;51.23;101157.31;5059545;28;20435;-64
2023/06/18 09:42:13;;;;;;;13.73;6.10;;;;;;;23.22;51.29;101159.31;5035652;28;20057;-66
2023/06/18 09:44:45;;;;;;;8.05;5.88;;;;;;;23.23;51.76;101156.16;5033984;28;20474;-66
2023/06/18 09:47:14;;;;;;;13.07;6.97;;;;;;;23.24;51.59;101157.78;5032710;28;20037;-66
2023/06/18 09:49:47;;;;;;;11.32;6.55;;;;;;;23.24;51.87;101155.00;5031314;28;20045;-64
2023/06/18 09:52:18;;;;;;;11.15;6.95;;;;;;;23.26;51.89;101152.69;5032881;28;20474;-65
2023/06/18 09:54:47;;;;;;;11.32;7.18;;;;;;;23.25;52.67;101148.28;5033052;28;20080;-65
2023/06/18 09:57:15;;;;;;;12.82;7.03;;;;;;;23.24;53.14;101157.78;5030850;28;20099;-66
2023/06/18 09:59:43;;;;;;;14.80;7.55;;;;;;;23.25;53.42;101153.03;5032629;28;20076;-65
2023/06/18 10:02:14;;;;;;;15.10;6.90;;;;;;;23.24;53.81;101152.22;5033795;28;20049;-66
2023/06/18 10:04:42;;;;;;;10.27;6.55;;;;;;;23.24;53.16;101152.22;5050000;28;20099;-66
2023/06/18 10:07:15;;;;;;;10.20;5.72;;;;;;;23.26;52.78;101151.88;5029501;28;20053;-67
2023/06/18 10:09:46;;;;;;;10.65;6.63;;;;;;;23.27;53.91;101157.09;5033892;28;20346;-65
2023/06/18 10:12:17;;;;;;;11.93;7.57;;;;;;;23.27;53.91;101156.28;5032206;28;20041;-64
2023/06/18 10:14:46;;;;;;;10.88;6.75;;;;;;;23.27;54.47;101159.88;5033819;28;20507;-65
2023/06/18 10:17:29;;;;;;;10.98;6.60;;;;;;;23.28;54.42;101163.47;5014919;28;20037;-66
2023/06/18 10:20:03;;;;;;;11.65;7.22;;;;;;;23.29;55.59;101156.75;5032539;28;20128;-66
2023/06/18 10:23:06;;;;;;;9.70;6.63;;;;;;;23.31;56.02;101165.56;5033868;28;20477;-65
2023/06/18 10:25:34;;;;;;;11.88;6.47;;;;;;;23.33;57.03;101160.44;5030999;28;20057;-66
2023/06/18 10:28:01;;;;;;;11.57;6.57;;;;;;;23.34;56.97;101157.34;5017641;28;20132;-66
2023/06/18 10:30:29;;;;;;;10.82;5.80;;;;;;;23.37;57.28;101150.25;5032675;28;20046;-65
2023/06/18 10:32:58;;;;;;;11.40;5.90;;;;;;;23.39;59.28;101145.97;5032943;28;20041;-66
2023/06/18 10:35:26;;;;;;;12.23;6.93;;;;;;;23.40;60.21;101144.00;5031647;28;20056;-66
2023/06/18 10:37:54;;;;;;;14.05;6.85;;;;;;;23.38;59.51;101147.16;5032058;28;20144;-65
2023/06/18 10:40:22;;;;;;;10.75;7.20;;;;;;;23.36;60.37;101141.13;5012228;28;20050;-66
2023/06/18 10:42:50;;;;;;;11.52;6.93;;;;;;;23.33;60.05;101127.91;4996409;28;20046;-65
2023/06/18 10:45:19;;;;;;;10.98;6.35;;;;;;;23.31;59.36;101124.66;5014898;28;20129;-66
2023/06/18 10:47:47;;;;;;;8.90;6.13;;;;;;;23.28;57.89;101130.94;5014049;28;20045;-66
2023/06/18 10:50:16;;;;;;;10.13;6.50;;;;;;;23.27;58.32;101118.16;5065797;28;20505;-66
2023/06/18 10:52:49;;;;;;;11.00;7.47;;;;;;;23.24;60.87;101116.09;5033418;28;20045;-69
2023/06/18 10:55:26;;;;;;;9.75;6.75;;;;;;;23.20;60.10;101122.69;5009073;28;20116;-67
2023/06/18 10:58:03;;;;;;;10.98;7.22;;;;;;;23.18;60.42;101120.25;5032194;28;20049;-66
2023/06/18 11:00:36;;;;;;;12.63;7.45;;;;;;;23.20;59.71;101111.56;5036506;28;20049;-66
2023/06/18 11:03:15;;;;;;;11.63;7.60;;;;;;;23.21;59.95;101108.44;5036570;28;20046;-66
2023/06/18 11:05:51;;;;;;;12.30;7.05;;;;;;;23.24;59.61;101104.97;5028508;28;20088;-65
2023/06/18 11:08:39;;;;;;;11.80;6.17;;;;;;;23.25;59.62;101098.25;5016733;28;20058;-66
2023/06/18 11:11:13;;;;;;;11.25;6.90;;;;;;;23.25;59.12;101087.13;5016545;28;20050;-66
2023/06/18 11:13:55;;;;;;;10.32;6.93;;;;;;;23.28;61.07;101091.16;5048960;28;20438;-65
2023/06/18 11:16:23;;;;;;;10.75;7.10;;;;;;;23.30;60.97;101089.66;5034653;28;20049;-65
2023/06/18 11:18:55;;;;;;;10.68;6.50;;;;;;;23.31;61.19;101091.31;5037239;28;20053;-67
2023/06/18 11:21:22;;;;;;;9.63;6.20;;;;;;;23.34;61.65;101087.81;5035973;28;20073;-66
2023/06/18 11:23:51;;;;;;;20.92;6.53;;;;;;;23.32;59.79;101087.34;5020376;28;20128;-66
2023/06/18 11:26:19;;;;;;;8.82;6.15;;;;;;;23.35;60.25;101083.06;5035465;28;20045;-65